createdAt,value
2019-05-12T00:01:48.250Z,74.27
2019-05-12T00:04:12.590Z,74.76
2019-05-12T00:06:38.715Z,75.87
2019-05-12T00:09:03.563Z,74.32
2019-05-12T00:11:28.728Z,74.18
2019-05-12T00:13:53.057Z,74.50
2019-05-12T00:16:17.686Z,74.34
2019-05-12T00:18:42.825Z,74.29
2019-05-12T00:21:08.778Z,73.68
2019-05-12T00:23:34.435Z,74.10
2019-05-12T00:26:07.989Z,73.83
2019-05-12T00:28:32.172Z,74.54
2019-05-12T00:30:58.039Z,74.33
2019-05-12T00:33:22.212Z,73.68
2019-05-12T00:35:48.109Z,74.07
2019-05-12T00:38:11.828Z,73.71
2019-05-12T00:40:38.805Z,73.89
2019-05-12T00:43:02.002Z,73.55
2019-05-12T00:45:29.159Z,73.25
2019-05-12T00:47:55.073Z,74.03
2019-05-12T00:50:19.403Z,73.13
2019-05-12T00:52:43.619Z,72.54
2019-05-12T00:55:09.307Z,72.04
2019-05-12T00:57:33.322Z,73.59
2019-05-12T00:59:58.236Z,73.48
2019-05-12T01:02:23.735Z,72.95
2019-05-12T01:04:48.650Z,72.26
2019-05-12T01:07:12.982Z,72.42
2019-05-12T01:09:38.671Z,71.84
2019-05-12T01:12:03.278Z,71.72
2019-05-12T01:14:28.025Z,71.36
2019-05-12T01:16:52.764Z,73.18
2019-05-12T01:19:18.518Z,72.19
2019-05-12T01:21:42.656Z,71.07
2019-05-12T01:24:08.722Z,69.63
2019-05-12T01:26:33.978Z,70.80
2019-05-12T01:28:59.425Z,70.34
2019-05-12T01:31:25.119Z,70.32
2019-05-12T01:33:49.210Z,71.21
2019-05-12T01:36:13.525Z,70.76
2019-05-12T01:38:39.269Z,70.33
2019-05-12T01:41:03.463Z,71.30
2019-05-12T01:43:27.882Z,71.23
2019-05-12T01:45:52.134Z,71.42
2019-05-12T01:48:18.328Z,70.59
2019-05-12T01:50:42.456Z,69.89
2019-05-12T01:53:09.903Z,70.73
2019-05-12T01:55:34.021Z,72.14
2019-05-12T01:57:58.118Z,74.18
2019-05-12T02:00:22.578Z,71.69
2019-05-12T02:02:48.069Z,73.06
2019-05-12T02:05:12.762Z,72.83
2019-05-12T02:07:47.818Z,72.95
2019-05-12T02:10:12.252Z,74.42
2019-05-12T02:12:38.299Z,72.16
2019-05-12T02:15:02.289Z,72.50
2019-05-12T02:17:28.347Z,74.67
2019-05-12T02:19:52.556Z,72.96
2019-05-12T02:22:18.845Z,71.95
2019-05-12T02:24:43.685Z,70.17
2019-05-12T02:27:08.338Z,72.21
2019-05-12T02:29:32.491Z,71.33
2019-05-12T02:31:58.994Z,71.82
2019-05-12T02:34:25.345Z,72.33
2019-05-12T02:36:47.980Z,70.96
2019-05-12T02:39:14.654Z,71.94
2019-05-12T02:41:36.764Z,70.89
2019-05-12T02:44:00.288Z,73.10
2019-05-12T02:46:25.556Z,70.71
2019-05-12T02:48:49.091Z,70.16
2019-05-12T02:51:15.545Z,72.87
2019-05-12T02:53:38.374Z,71.45
2019-05-12T02:56:05.040Z,70.37
2019-05-12T02:58:30.319Z,72.07
2019-05-12T03:00:57.409Z,73.08
2019-05-12T03:03:25.148Z,71.52
2019-05-12T03:05:50.479Z,72.04
2019-05-12T03:08:15.491Z,71.98
2019-05-12T03:10:39.412Z,72.06
2019-05-12T03:13:04.239Z,72.04
2019-05-12T03:15:28.182Z,71.79
2019-05-12T03:17:54.467Z,70.71
2019-05-12T03:20:17.223Z,71.52
2019-05-12T03:22:40.736Z,71.37
2019-05-12T03:25:15.525Z,73.22
2019-05-12T03:27:30.781Z,73.75
2019-05-12T03:29:55.197Z,72.17
2019-05-12T03:32:19.217Z,73.09
2019-05-12T03:34:47.413Z,73.33
2019-05-12T03:37:08.661Z,72.30
2019-05-12T03:39:34.381Z,71.51
2019-05-12T03:41:57.744Z,74.67
2019-05-12T03:44:21.259Z,73.77
2019-05-12T03:46:45.719Z,73.51
2019-05-12T03:49:10.194Z,73.17
2019-05-12T03:51:34.986Z,73.99
2019-05-12T03:53:58.819Z,73.52
2019-05-12T03:56:25.573Z,73.32
2019-05-12T03:58:47.600Z,74.97
2019-05-12T04:01:11.160Z,75.19
2019-05-12T04:03:34.876Z,75.03
2019-05-12T04:05:58.411Z,75.85
2019-05-12T04:08:24.637Z,77.79
2019-05-12T04:10:47.494Z,76.50
2019-05-12T04:13:11.097Z,76.37
2019-05-12T04:15:35.495Z,77.16
2019-05-12T04:17:59.765Z,77.71
2019-05-12T04:20:25.482Z,78.46
2019-05-12T04:22:49.851Z,78.35
2019-05-12T04:25:14.549Z,78.89
2019-05-12T04:27:38.649Z,80.45
2019-05-12T04:30:05.497Z,82.07
2019-05-12T04:32:28.760Z,83.10
2019-05-12T04:34:55.081Z,83.27
2019-05-12T04:37:17.829Z,82.55
2019-05-12T04:39:44.544Z,80.88
2019-05-12T04:42:07.743Z,81.95
2019-05-12T04:44:34.740Z,81.85
2019-05-12T04:46:57.747Z,82.44
2019-05-12T04:49:25.065Z,82.12
2019-05-12T04:51:47.566Z,82.18
2019-05-12T04:54:15.193Z,80.63
2019-05-12T04:56:38.505Z,81.05
2019-05-12T04:59:05.011Z,79.94
2019-05-12T05:01:28.831Z,79.53
2019-05-12T05:03:54.563Z,79.23
2019-05-12T05:06:18.977Z,79.89
2019-05-12T05:08:44.228Z,79.52
2019-05-12T05:11:08.779Z,79.20
2019-05-12T05:13:36.761Z,78.16
2019-05-12T05:16:00.469Z,78.52
2019-05-12T05:18:27.459Z,78.70
2019-05-12T05:20:51.494Z,79.14
2019-05-12T05:23:17.084Z,78.79
2019-05-12T05:25:43.494Z,79.38
2019-05-12T05:28:09.757Z,78.87
2019-05-12T05:30:34.938Z,79.33
2019-05-12T05:32:59.056Z,79.16
2019-05-12T05:35:23.938Z,80.77
2019-05-12T05:37:48.336Z,80.48
2019-05-12T05:40:14.052Z,80.30
2019-05-12T05:42:40.228Z,78.43
2019-05-12T05:45:09.801Z,77.62
2019-05-12T05:47:33.628Z,77.51
2019-05-12T05:49:58.938Z,77.08
2019-05-12T05:52:24.579Z,77.16
2019-05-12T05:54:49.914Z,76.23
2019-05-12T05:57:20.049Z,74.58
2019-05-12T05:59:44.684Z,75.16
2019-05-12T06:02:08.949Z,74.05
2019-05-12T06:04:34.178Z,73.67
2019-05-12T06:06:58.312Z,73.66
2019-05-12T06:09:23.764Z,73.40
2019-05-12T06:11:47.797Z,72.48
2019-05-12T06:14:14.081Z,72.25
2019-05-12T06:16:37.640Z,72.96
2019-05-12T06:19:03.457Z,72.51
2019-05-12T06:21:33.393Z,72.39
2019-05-12T06:23:54.151Z,72.24
2019-05-12T06:26:20.944Z,70.76
2019-05-12T06:28:44.043Z,70.54
2019-05-12T06:31:07.888Z,70.91
2019-05-12T06:33:36.064Z,69.21
2019-05-12T06:35:56.741Z,69.53
2019-05-12T06:38:20.288Z,70.36
2019-05-12T06:40:45.349Z,70.55
2019-05-12T06:43:09.299Z,70.30
2019-05-12T06:45:39.666Z,70.16
2019-05-12T06:47:59.027Z,69.40
2019-05-12T06:50:23.727Z,69.68
2019-05-12T06:52:49.176Z,69.48
2019-05-12T06:55:14.708Z,69.54
2019-05-12T06:57:39.960Z,68.63
2019-05-12T07:00:04.791Z,69.69
2019-05-12T07:02:30.408Z,68.80
2019-05-12T07:04:59.410Z,68.37
2019-05-12T07:07:20.069Z,68.51
2019-05-12T07:09:51.996Z,69.33
2019-05-12T07:12:08.890Z,68.22
2019-05-12T07:14:34.564Z,66.66
2019-05-12T07:17:01.748Z,67.81
2019-05-12T07:19:25.548Z,68.67
2019-05-12T07:21:50.838Z,67.93
2019-05-12T07:24:14.629Z,67.71
2019-05-12T07:26:38.137Z,68.38
2019-05-12T07:29:04.228Z,67.02
2019-05-12T07:31:27.145Z,68.06
2019-05-12T07:33:50.672Z,68.04
2019-05-12T07:36:15.863Z,67.08
2019-05-12T07:38:43.258Z,67.75
2019-05-12T07:41:10.548Z,66.13
2019-05-12T07:43:33.771Z,66.31
2019-05-12T07:46:03.106Z,66.33
2019-05-12T07:48:25.798Z,66.85
2019-05-12T07:50:50.382Z,65.77
2019-05-12T07:53:14.673Z,65.86
2019-05-12T07:55:39.752Z,66.39
2019-05-12T07:58:13.710Z,65.98
2019-05-12T08:00:30.018Z,66.01
2019-05-12T08:02:54.106Z,67.19
2019-05-12T08:05:21.135Z,66.04
2019-05-12T08:07:44.581Z,65.05
2019-05-12T08:10:17.684Z,64.97
2019-05-12T08:12:34.526Z,64.42
2019-05-12T08:14:59.464Z,64.75
2019-05-12T08:17:24.686Z,64.94
2019-05-12T08:19:50.130Z,64.65
2019-05-12T08:22:18.927Z,63.57
2019-05-12T08:24:43.507Z,63.88
2019-05-12T08:27:06.399Z,63.84
2019-05-12T08:29:30.335Z,64.12
2019-05-12T08:31:54.876Z,64.67
2019-05-12T08:34:18.598Z,65.60
2019-05-12T08:36:44.955Z,64.90
2019-05-12T08:39:11.753Z,64.67
2019-05-12T08:41:34.165Z,65.26
2019-05-12T08:43:58.567Z,66.28
2019-05-12T08:46:24.323Z,65.21
2019-05-12T08:48:51.662Z,65.59
2019-05-12T08:51:16.725Z,65.98
2019-05-12T08:53:38.891Z,66.49
2019-05-12T08:56:12.194Z,64.54
2019-05-12T08:58:34.032Z,65.29
2019-05-12T09:00:55.743Z,64.12
2019-05-12T09:03:20.505Z,61.78
2019-05-12T09:05:44.762Z,59.63
2019-05-12T09:08:08.271Z,59.77
2019-05-12T09:10:33.751Z,54.63
2019-05-12T09:12:57.140Z,52.91
2019-05-12T09:15:20.669Z,53.01
2019-05-12T09:17:52.669Z,52.13
2019-05-12T09:20:09.947Z,52.76
2019-05-12T09:22:34.276Z,53.96
2019-05-12T09:24:58.400Z,52.93
2019-05-12T09:27:24.139Z,52.17
2019-05-12T09:29:47.727Z,50.63
2019-05-12T09:32:11.290Z,52.83
2019-05-12T09:34:34.907Z,51.63
2019-05-12T09:36:59.851Z,52.72
2019-05-12T09:39:23.740Z,50.61
2019-05-12T09:41:50.765Z,51.94
2019-05-12T09:44:13.398Z,50.97
2019-05-12T09:46:37.724Z,50.14
2019-05-12T09:49:01.376Z,51.10
2019-05-12T09:51:24.972Z,50.05
2019-05-12T09:53:55.176Z,48.30
2019-05-12T09:56:13.896Z,46.07
2019-05-12T09:58:37.457Z,45.76
2019-05-12T10:01:03.491Z,43.67
2019-05-12T10:03:30.859Z,44.41
2019-05-12T10:05:53.458Z,44.14
2019-05-12T10:08:17.038Z,42.10
2019-05-12T10:10:43.983Z,43.04
2019-05-12T10:13:05.945Z,42.71
2019-05-12T10:15:29.470Z,40.77
2019-05-12T10:17:53.986Z,45.07
2019-05-12T10:20:17.900Z,39.14
2019-05-12T10:22:43.763Z,38.92
2019-05-12T10:25:09.281Z,36.69
2019-05-12T10:27:34.571Z,35.00
2019-05-12T10:30:03.272Z,33.42
2019-05-12T10:32:24.042Z,33.75
2019-05-12T10:34:47.617Z,35.01
2019-05-12T10:37:13.221Z,34.50
2019-05-12T10:39:36.523Z,33.92
2019-05-12T10:42:00.150Z,32.28
2019-05-12T10:44:23.713Z,31.36
2019-05-12T10:46:49.998Z,31.87
2019-05-12T10:49:13.948Z,36.57
2019-05-12T10:51:37.611Z,29.67
2019-05-12T10:54:07.702Z,29.74
2019-05-12T10:56:26.506Z,31.22
2019-05-12T10:58:50.104Z,31.53
2019-05-12T11:01:13.633Z,33.40
2019-05-12T11:03:37.224Z,31.25
2019-05-12T11:06:02.893Z,31.93
2019-05-12T11:08:26.136Z,30.10
2019-05-12T11:10:50.352Z,30.64
2019-05-12T11:13:18.041Z,30.31
2019-05-12T11:15:46.159Z,29.17
2019-05-12T11:18:09.663Z,29.17
2019-05-12T11:20:34.510Z,26.43
2019-05-12T11:22:59.643Z,28.74
2019-05-12T11:25:24.811Z,27.67
2019-05-12T11:27:48.505Z,28.98
2019-05-12T11:30:13.180Z,29.69
2019-05-12T11:32:38.053Z,29.57
2019-05-12T11:35:03.996Z,27.35
2019-05-12T11:37:29.049Z,26.68
2019-05-12T11:39:53.556Z,27.43
2019-05-12T11:42:17.338Z,27.38
2019-05-12T11:44:41.020Z,25.66
2019-05-12T11:47:04.583Z,24.34
2019-05-12T11:49:28.221Z,25.16
2019-05-12T11:51:54.246Z,25.50
2019-05-12T11:54:18.056Z,25.70
2019-05-12T11:56:46.624Z,26.55
2019-05-12T11:59:08.169Z,26.60
2019-05-12T12:01:31.695Z,25.80
2019-05-12T12:03:55.253Z,26.35
2019-05-12T12:06:18.841Z,26.83
2019-05-12T12:08:44.134Z,26.78
2019-05-12T12:11:10.687Z,27.43
2019-05-12T12:13:33.655Z,25.59
2019-05-12T12:16:00.399Z,26.48
2019-05-12T12:18:23.737Z,26.65
2019-05-12T12:20:48.143Z,26.40
2019-05-12T12:23:13.915Z,24.97
2019-05-12T12:25:37.235Z,28.20
2019-05-12T12:28:01.211Z,25.13
2019-05-12T12:30:25.417Z,23.66
2019-05-12T12:32:50.364Z,25.25
2019-05-12T12:35:15.162Z,24.19
2019-05-12T12:37:39.076Z,24.80
2019-05-12T12:40:04.244Z,24.76
2019-05-12T12:42:30.434Z,23.55
2019-05-12T12:44:58.856Z,24.01
2019-05-12T12:47:19.164Z,24.58
2019-05-12T12:49:45.236Z,24.28
2019-05-12T12:52:08.619Z,24.61
2019-05-12T12:54:33.282Z,23.15
2019-05-12T12:57:00.136Z,23.65
2019-05-12T12:59:24.061Z,23.59
2019-05-12T13:01:47.679Z,22.88
2019-05-12T13:04:13.258Z,23.22
2019-05-12T13:06:36.646Z,23.26
2019-05-12T13:09:00.203Z,24.29
2019-05-12T13:11:33.206Z,22.62
2019-05-12T13:13:49.095Z,22.76
2019-05-12T13:16:13.320Z,25.98
2019-05-12T13:18:36.928Z,25.20
2019-05-12T13:21:00.725Z,27.70
2019-05-12T13:23:36.827Z,24.89
2019-05-12T13:25:51.950Z,24.18
2019-05-12T13:28:19.105Z,23.05
2019-05-12T13:30:46.075Z,21.24
2019-05-12T13:33:08.863Z,23.99
2019-05-12T13:35:31.325Z,27.22
2019-05-12T13:38:00.210Z,26.27
2019-05-12T13:40:23.259Z,24.09
2019-05-12T13:42:46.484Z,25.19
2019-05-12T13:45:13.950Z,24.96
2019-05-12T13:47:39.925Z,23.79
2019-05-12T13:50:03.889Z,24.42
2019-05-12T13:52:30.254Z,22.14
2019-05-12T13:54:52.164Z,21.45
2019-05-12T13:57:15.998Z,22.35
2019-05-12T13:59:39.811Z,22.11
2019-05-12T14:02:03.715Z,20.32
2019-05-12T14:04:28.040Z,20.34
2019-05-12T14:06:53.249Z,23.96
2019-05-12T14:09:16.929Z,22.56
2019-05-12T14:11:40.605Z,20.59
2019-05-12T14:14:11.171Z,20.38
2019-05-12T14:16:30.156Z,20.77
2019-05-12T14:18:57.163Z,20.69
2019-05-12T14:21:19.477Z,20.36
2019-05-12T14:23:43.627Z,20.37
2019-05-12T14:26:09.289Z,18.77
2019-05-12T14:28:33.670Z,19.20
2019-05-12T14:30:57.537Z,19.83
2019-05-12T14:33:21.079Z,20.12
2019-05-12T14:35:46.011Z,22.19
2019-05-12T14:38:09.833Z,24.75
2019-05-12T14:40:34.856Z,26.76
2019-05-12T14:42:58.668Z,27.27
2019-05-12T14:45:27.788Z,27.91
2019-05-12T14:47:47.845Z,27.46
2019-05-12T14:50:13.845Z,27.42
2019-05-12T14:52:36.948Z,26.65
2019-05-12T14:55:03.358Z,27.27
2019-05-12T14:57:29.525Z,28.36
2019-05-12T14:59:51.582Z,30.28
2019-05-12T15:02:19.461Z,30.93
2019-05-12T15:04:40.669Z,29.56
2019-05-12T15:07:08.097Z,29.29
2019-05-12T15:09:29.688Z,28.33
2019-05-12T15:11:53.510Z,29.08
2019-05-12T15:14:17.112Z,28.65
2019-05-12T15:16:42.594Z,29.31
2019-05-12T15:19:06.268Z,29.21
2019-05-12T15:21:31.337Z,29.41
2019-05-12T15:23:55.246Z,29.41
2019-05-12T15:26:19.934Z,29.91
2019-05-12T15:28:43.808Z,29.62
2019-05-12T15:31:07.427Z,31.43
2019-05-12T15:33:33.509Z,30.62
2019-05-12T15:35:56.306Z,29.23
2019-05-12T15:38:19.858Z,30.64
2019-05-12T15:40:43.538Z,31.67
2019-05-12T15:43:09.193Z,29.53
2019-05-12T15:45:34.291Z,30.38
2019-05-12T15:47:58.115Z,31.07
2019-05-12T15:50:23.544Z,30.66
2019-05-12T15:52:47.194Z,30.87
2019-05-12T15:55:13.468Z,31.43
2019-05-12T15:57:36.373Z,31.07
2019-05-12T16:00:00.155Z,30.34
2019-05-12T16:02:23.979Z,30.41
2019-05-12T16:04:48.591Z,31.07
2019-05-12T16:07:14.210Z,32.01
2019-05-12T16:09:37.805Z,32.89
2019-05-12T16:12:09.570Z,33.25
2019-05-12T16:14:30.465Z,32.70
2019-05-12T16:16:53.577Z,33.07
2019-05-12T16:19:17.301Z,34.51
2019-05-12T16:21:40.832Z,31.26
2019-05-12T16:24:10.910Z,30.35
2019-05-12T16:26:29.795Z,31.41
2019-05-12T16:29:02.000Z,31.66
2019-05-12T16:31:18.642Z,32.05
2019-05-12T16:33:43.641Z,33.36
2019-05-12T16:36:11.474Z,32.23
2019-05-12T16:38:33.770Z,32.12
2019-05-12T16:40:57.755Z,32.06
2019-05-12T16:43:23.774Z,32.42
2019-05-12T16:45:47.540Z,32.23
2019-05-12T16:48:26.661Z,33.03
2019-05-12T16:50:36.530Z,34.00
2019-05-12T16:53:00.293Z,33.86
2019-05-12T16:55:24.264Z,32.59
2019-05-12T16:57:52.947Z,31.35
2019-05-12T17:00:14.398Z,32.50
2019-05-12T17:02:41.959Z,31.89
2019-05-12T17:05:06.628Z,32.30
2019-05-12T17:07:29.873Z,32.25
2019-05-12T17:09:54.359Z,33.81
2019-05-12T17:12:18.234Z,34.76
2019-05-12T17:14:45.667Z,35.99
2019-05-12T17:17:10.601Z,34.84
2019-05-12T17:19:34.066Z,34.41
2019-05-12T17:21:59.383Z,35.57
2019-05-12T17:24:24.742Z,35.88
2019-05-12T17:26:48.617Z,35.42
2019-05-12T17:29:13.671Z,36.42
2019-05-12T17:31:37.447Z,37.53
2019-05-12T17:34:06.565Z,37.20
2019-05-12T17:36:26.782Z,37.51
2019-05-12T17:38:51.249Z,36.89
2019-05-12T17:41:18.004Z,37.53
2019-05-12T17:43:54.834Z,36.79
2019-05-12T17:46:07.257Z,37.25
2019-05-12T17:48:31.026Z,37.63
2019-05-12T17:50:54.899Z,37.76
2019-05-12T17:53:18.997Z,37.24
2019-05-12T17:55:50.582Z,39.20
2019-05-12T17:58:08.269Z,39.67
2019-05-12T18:00:33.652Z,39.35
2019-05-12T18:03:14.551Z,38.45
2019-05-12T18:05:23.775Z,39.17
2019-05-12T18:07:50.978Z,38.55
2019-05-12T18:10:13.623Z,40.50
2019-05-12T18:12:44.525Z,40.96
2019-05-12T18:15:04.221Z,41.32
2019-05-12T18:17:28.066Z,42.17
2019-05-12T18:19:58.968Z,42.97
2019-05-12T18:22:18.166Z,41.87
2019-05-12T18:24:49.431Z,42.16
2019-05-12T18:27:07.940Z,42.28
2019-05-12T18:29:31.668Z,43.34
2019-05-12T18:31:55.710Z,42.54
2019-05-12T18:34:19.975Z,43.36
2019-05-12T18:36:43.672Z,44.47
2019-05-12T18:39:11.471Z,45.04
2019-05-12T18:41:33.821Z,45.17
2019-05-12T18:43:57.481Z,44.24
2019-05-12T18:46:23.805Z,44.27
2019-05-12T18:48:47.174Z,43.80
2019-05-12T18:51:12.217Z,43.49
2019-05-12T18:53:36.606Z,45.31
2019-05-12T18:56:00.455Z,44.62
2019-05-12T18:58:30.792Z,46.00
2019-05-12T19:00:49.613Z,45.71
2019-05-12T19:03:14.038Z,48.14
2019-05-12T19:05:38.254Z,48.73
2019-05-12T19:08:03.671Z,50.38
2019-05-12T19:10:27.293Z,51.21
2019-05-12T19:12:51.597Z,47.67
2019-05-12T19:15:21.653Z,47.24
2019-05-12T19:17:43.622Z,49.30
2019-05-12T19:20:07.890Z,49.76
2019-05-12T19:22:33.697Z,50.47
2019-05-12T19:25:00.002Z,51.94
2019-05-12T19:27:24.033Z,52.64
2019-05-12T19:29:49.168Z,53.66
2019-05-12T19:32:14.369Z,54.10
2019-05-12T19:34:39.434Z,55.05
2019-05-12T19:37:06.102Z,55.46
2019-05-12T19:39:28.678Z,55.52
2019-05-12T19:41:54.307Z,55.88
2019-05-12T19:44:19.932Z,56.21
2019-05-12T19:46:46.089Z,55.59
2019-05-12T19:49:08.849Z,56.97
2019-05-12T19:51:34.565Z,57.51
2019-05-12T19:53:58.200Z,57.86
2019-05-12T19:56:23.849Z,57.29
2019-05-12T19:58:47.694Z,57.61
2019-05-12T20:01:11.401Z,57.90
2019-05-12T20:03:34.930Z,57.55
2019-05-12T20:05:58.555Z,57.79
2019-05-12T20:08:23.103Z,57.80
2019-05-12T20:10:49.367Z,58.90
2019-05-12T20:13:13.666Z,59.65
2019-05-12T20:15:43.715Z,59.86
2019-05-12T20:18:08.057Z,60.85
2019-05-12T20:20:38.142Z,60.37
2019-05-12T20:22:59.454Z,60.22
2019-05-12T20:25:25.930Z,59.24
2019-05-12T20:27:55.864Z,60.87
2019-05-12T20:30:28.725Z,61.76
2019-05-12T20:32:55.052Z,61.88
2019-05-12T20:35:19.520Z,62.20
2019-05-12T20:37:53.150Z,60.08
2019-05-12T20:40:14.143Z,62.53
2019-05-12T20:42:55.589Z,63.08
2019-05-12T20:45:08.574Z,63.02
2019-05-12T20:47:33.844Z,62.04
2019-05-12T20:49:59.463Z,62.08
2019-05-12T20:52:23.906Z,62.44
2019-05-12T20:54:57.785Z,63.80
2019-05-12T20:57:18.442Z,63.23
2019-05-12T20:59:44.616Z,62.62
2019-05-12T21:02:08.672Z,64.83
2019-05-12T21:04:37.457Z,65.59
2019-05-12T21:06:57.734Z,64.82
2019-05-12T21:09:23.523Z,64.69
2019-05-12T21:11:46.663Z,65.08
2019-05-12T21:14:12.441Z,66.69
2019-05-12T21:16:38.963Z,66.65
2019-05-12T21:19:09.849Z,67.13
2019-05-12T21:21:33.378Z,66.97
2019-05-12T21:23:54.361Z,65.84
2019-05-12T21:26:18.370Z,65.87
2019-05-12T21:28:46.195Z,66.44
2019-05-12T21:31:07.261Z,67.82
2019-05-12T21:33:31.294Z,69.04
2019-05-12T21:35:56.084Z,69.50
2019-05-12T21:38:25.175Z,69.98
2019-05-12T21:40:45.013Z,69.90
2019-05-12T21:43:08.619Z,69.55
2019-05-12T21:45:33.877Z,68.93
2019-05-12T21:47:57.489Z,70.01
2019-05-12T21:50:24.166Z,69.64
2019-05-12T21:52:46.316Z,69.57
2019-05-12T21:55:13.516Z,69.71
2019-05-12T21:57:35.796Z,70.14
2019-05-12T21:59:59.322Z,69.67
2019-05-12T22:02:28.945Z,69.48
2019-05-12T22:04:48.825Z,69.73
2019-05-12T22:07:14.589Z,69.41
2019-05-12T22:09:41.799Z,69.59
2019-05-12T22:12:03.790Z,69.97
2019-05-12T22:14:30.409Z,70.50
2019-05-12T22:16:54.612Z,70.05
2019-05-12T22:19:18.142Z,70.49
2019-05-12T22:21:49.253Z,71.24
2019-05-12T22:24:06.898Z,71.11
2019-05-12T22:26:36.310Z,71.41
2019-05-12T22:28:55.778Z,71.46
2019-05-12T22:31:19.295Z,71.16
2019-05-12T22:33:51.623Z,71.41
2019-05-12T22:36:14.518Z,72.31
2019-05-12T22:38:33.972Z,72.10
2019-05-12T22:40:59.570Z,72.06
2019-05-12T22:43:23.735Z,72.28
2019-05-12T22:45:49.422Z,74.23
2019-05-12T22:48:12.631Z,74.48
2019-05-12T22:50:36.181Z,74.63
2019-05-12T22:52:59.709Z,73.91
2019-05-12T22:55:30.717Z,74.60
2019-05-12T22:57:48.554Z,74.19
2019-05-12T23:00:19.355Z,74.23
2019-05-12T23:02:39.679Z,74.30
2019-05-12T23:05:03.717Z,74.62
2019-05-12T23:07:29.649Z,74.87
2019-05-12T23:09:53.786Z,75.25
2019-05-12T23:12:20.208Z,75.59
2019-05-12T23:14:44.390Z,76.35
2019-05-12T23:17:08.087Z,77.15
2019-05-12T23:19:33.876Z,77.05
2019-05-12T23:21:58.716Z,76.58
2019-05-12T23:24:23.700Z,76.68
2019-05-12T23:26:48.010Z,76.17
2019-05-12T23:29:11.621Z,75.36
2019-05-12T23:31:35.122Z,75.13
2019-05-12T23:33:58.797Z,75.44
2019-05-12T23:36:35.315Z,75.44
2019-05-12T23:38:52.038Z,75.31
2019-05-12T23:41:14.940Z,75.96
2019-05-12T23:43:39.885Z,76.12
2019-05-12T23:46:03.554Z,75.64
2019-05-12T23:48:27.060Z,75.23
2019-05-12T23:50:50.631Z,74.67
2019-05-12T23:53:14.849Z,74.13
2019-05-12T23:55:38.832Z,74.08
2019-05-12T23:58:04.162Z,72.67
